Time;durP1;ratioP1;P1;durP2;ratioP2;P2;SDS_P1;SDS_P2;PMS_P1;PMS_P2;Temp;Humidity;BMP_temperature;BMP_pressure;BME280_temperature;BME280_humidity;BME280_pressure;Samples;Min_cycle;Max_cycle;Signal;HPM_P1;HPM_P2
2024/01/05 00:02:19;;;;;;;0.80;0.80;;;3.80;99.90;;;;;;4925398;29;20189;-62
2024/01/05 00:04:45;;;;;;;0.77;0.77;;;3.90;99.90;;;;;;4926639;29;20279;-62
2024/01/05 00:07:11;;;;;;;0.50;0.50;;;3.90;99.90;;;;;;4928275;29;20225;-62
2024/01/05 00:09:37;;;;;;;0.40;0.40;;;3.90;99.90;;;;;;4935550;29;20936;-62
2024/01/05 00:12:03;;;;;;;0.40;0.40;;;3.90;99.90;;;;;;4936501;29;20178;-62
2024/01/05 00:14:29;;;;;;;0.40;0.40;;;3.90;99.90;;;;;;4936531;29;20209;-62
2024/01/05 00:16:58;;;;;;;0.40;0.40;;;3.90;99.90;;;;;;4936787;29;20198;-63
2024/01/05 00:19:24;;;;;;;0.40;0.40;;;3.80;99.90;;;;;;4937227;29;20497;-62
2024/01/05 00:21:51;;;;;;;0.87;0.60;;;3.80;99.90;;;;;;4937310;29;20209;-63
2024/01/05 00:24:16;;;;;;;0.50;0.50;;;3.80;99.90;;;;;;4937388;29;20166;-63
2024/01/05 00:26:43;;;;;;;1.13;0.67;;;3.90;99.90;;;;;;4937556;29;20285;-63
2024/01/05 00:29:09;;;;;;;0.30;0.30;;;4.00;99.90;;;;;;4937225;29;20189;-63
2024/01/05 00:31:34;;;;;;;0.73;0.73;;;3.90;99.90;;;;;;4936184;29;20209;-63
2024/01/05 00:34:00;;;;;;;0.40;0.40;;;3.90;99.90;;;;;;4937361;29;20225;-63
2024/01/05 00:36:26;;;;;;;0.50;0.50;;;3.90;99.90;;;;;;4937284;29;20248;-63
2024/01/05 00:38:52;;;;;;;0.30;0.30;;;3.90;99.90;;;;;;4936406;29;20174;-62
2024/01/05 00:41:17;;;;;;;0.60;0.60;;;4.10;99.90;;;;;;4936554;29;20178;-62
2024/01/05 00:43:43;;;;;;;0.30;0.30;;;4.10;99.90;;;;;;4937241;29;20228;-62
2024/01/05 00:46:09;;;;;;;0.30;0.30;;;4.20;99.90;;;;;;4936637;29;20198;-62
2024/01/05 00:48:35;;;;;;;0.40;0.40;;;4.10;99.90;;;;;;4936598;29;20186;-62
2024/01/05 00:51:01;;;;;;;0.30;0.30;;;4.00;99.90;;;;;;4936602;29;20214;-63
2024/01/05 00:53:26;;;;;;;0.40;0.40;;;4.00;99.90;;;;;;4936902;29;20185;-63
2024/01/05 00:55:52;;;;;;;0.30;0.30;;;4.10;99.90;;;;;;4937006;29;20667;-63
2024/01/05 00:58:18;;;;;;;1.60;1.40;;;4.00;99.90;;;;;;4936326;29;20190;-63
2024/01/05 01:00:43;;;;;;;2.80;1.43;;;3.90;99.90;;;;;;4936368;29;20684;-63
2024/01/05 01:03:09;;;;;;;0.40;0.40;;;4.00;99.90;;;;;;4937329;29;20415;-63
2024/01/05 01:05:35;;;;;;;0.30;0.30;;;4.00;99.90;;;;;;4937466;29;20692;-62
2024/01/05 01:08:00;;;;;;;0.30;0.30;;;3.90;99.90;;;;;;4937159;29;20232;-63
2024/01/05 01:10:26;;;;;;;0.30;0.30;;;3.80;99.90;;;;;;4936470;29;20190;-63
2024/01/05 01:12:52;;;;;;;0.30;0.30;;;3.90;99.90;;;;;;4937347;29;20414;-63
2024/01/05 01:15:17;;;;;;;3.07;2.77;;;4.00;99.90;;;;;;4936972;29;20202;-63
2024/01/05 01:17:43;;;;;;;0.40;0.40;;;4.00;99.90;;;;;;4936857;29;20187;-63
2024/01/05 01:20:09;;;;;;;5.97;0.70;;;4.00;99.90;;;;;;4936731;29;20182;-63
2024/01/05 01:22:35;;;;;;;0.40;0.40;;;4.00;99.90;;;;;;4936509;29;20277;-62
2024/01/05 01:25:01;;;;;;;0.30;0.30;;;3.90;99.90;;;;;;4936686;29;20174;-62
2024/01/05 01:27:26;;;;;;;0.30;0.30;;;4.00;99.90;;;;;;4936662;29;20198;-63
2024/01/05 01:29:52;;;;;;;2.50;1.60;;;4.00;99.90;;;;;;4936007;29;20196;-62
2024/01/05 01:32:18;;;;;;;0.70;0.70;;;4.00;99.90;;;;;;4938247;29;20170;-63
2024/01/05 01:34:43;;;;;;;0.40;0.40;;;4.00;99.90;;;;;;4939462;29;20173;-63
2024/01/05 01:37:09;;;;;;;1.57;1.57;;;4.00;99.90;;;;;;4940026;29;21079;-62
2024/01/05 01:39:35;;;;;;;2.10;1.27;;;4.20;99.90;;;;;;4940001;29;20205;-63
2024/01/05 01:42:00;;;;;;;1.57;1.47;;;4.30;99.90;;;;;;4939982;29;20186;-62
2024/01/05 01:44:26;;;;;;;1.37;1.37;;;4.40;99.90;;;;;;4940470;29;20171;-63
2024/01/05 01:46:55;;;;;;;0.40;0.40;;;4.40;99.90;;;;;;4939714;29;20306;-62
2024/01/05 01:49:21;;;;;;;1.40;1.00;;;4.40;99.90;;;;;;4939276;29;20414;-62
2024/01/05 01:51:48;;;;;;;0.40;0.40;;;4.40;99.90;;;;;;4939328;29;20261;-63
2024/01/05 01:54:15;;;;;;;0.40;0.40;;;4.40;99.90;;;;;;4940013;29;20557;-63
2024/01/05 01:56:43;;;;;;;2.00;0.95;;;4.40;99.90;;;;;;4939593;29;20210;-63
2024/01/05 01:59:09;;;;;;;4.22;0.73;;;4.40;99.90;;;;;;4939511;29;20256;-63
2024/01/05 02:01:36;;;;;;;1.23;0.88;;;4.50;99.90;;;;;;4938971;29;20633;-62
2024/01/05 02:04:03;;;;;;;1.60;0.50;;;4.50;99.90;;;;;;4939254;29;20186;-63
2024/01/05 02:06:29;;;;;;;0.40;0.40;;;4.40;99.90;;;;;;4939699;29;20607;-63
2024/01/05 02:08:55;;;;;;;0.40;0.40;;;4.50;99.90;;;;;;4939497;29;20193;-63
2024/01/05 02:11:21;;;;;;;0.50;0.50;;;4.50;99.90;;;;;;4939873;29;20489;-63
2024/01/05 02:13:48;;;;;;;0.40;0.40;;;4.50;99.90;;;;;;4939685;29;20197;-62
2024/01/05 02:16:14;;;;;;;0.30;0.30;;;4.60;99.90;;;;;;4939981;29;20198;-62
2024/01/05 02:18:40;;;;;;;0.70;0.70;;;4.50;99.90;;;;;;4939229;29;20171;-63
2024/01/05 02:21:08;;;;;;;0.40;0.40;;;4.40;99.90;;;;;;4939236;29;20174;-63
2024/01/05 02:23:34;;;;;;;1.13;1.13;;;4.50;99.90;;;;;;4939572;29;20445;-63
2024/01/05 02:26:00;;;;;;;1.03;1.03;;;4.50;99.90;;;;;;4939067;29;20609;-63
2024/01/05 02:28:26;;;;;;;0.40;0.40;;;4.50;99.90;;;;;;4939666;29;20827;-63
2024/01/05 02:30:56;;;;;;;0.70;0.40;;;4.60;99.90;;;;;;4938947;29;20248;-63
2024/01/05 02:33:23;;;;;;;0.40;0.40;;;4.50;99.90;;;;;;4939278;29;20167;-63
2024/01/05 02:35:48;;;;;;;0.40;0.40;;;4.50;99.90;;;;;;4939183;29;20202;-62
2024/01/05 02:38:14;;;;;;;0.70;0.70;;;4.40;99.90;;;;;;4939114;29;20170;-63
2024/01/05 02:40:40;;;;;;;0.47;0.47;;;4.60;99.90;;;;;;4939038;29;20175;-63
2024/01/05 02:43:05;;;;;;;0.40;0.40;;;4.60;99.90;;;;;;4921682;29;20175;-62
2024/01/05 02:45:32;;;;;;;0.80;0.80;;;4.60;99.90;;;;;;4939322;29;20177;-63
2024/01/05 02:47:57;;;;;;;0.40;0.40;;;4.60;99.90;;;;;;4939228;29;20209;-62
2024/01/05 02:50:23;;;;;;;0.90;0.90;;;4.50;99.90;;;;;;4938563;29;20576;-63
2024/01/05 02:52:48;;;;;;;0.50;0.50;;;4.50;99.90;;;;;;4938811;29;20667;-62
2024/01/05 02:55:14;;;;;;;0.30;0.30;;;4.50;99.90;;;;;;4938656;29;20182;-63
2024/01/05 02:57:41;;;;;;;0.40;0.40;;;4.60;99.90;;;;;;4938581;29;20625;-63
2024/01/05 03:00:07;;;;;;;0.88;0.88;;;4.60;99.90;;;;;;4938472;29;20190;-63
2024/01/05 03:02:33;;;;;;;0.40;0.40;;;4.60;99.90;;;;;;4938237;29;20184;-63
2024/01/05 03:04:58;;;;;;;0.80;0.80;;;4.50;99.90;;;;;;4938279;29;20180;-63
2024/01/05 03:07:24;;;;;;;0.40;0.40;;;4.40;99.90;;;;;;4938168;29;20269;-63
2024/01/05 03:09:51;;;;;;;0.40;0.40;;;4.30;99.90;;;;;;4938121;29;20505;-63
2024/01/05 03:12:20;;;;;;;5.07;1.02;;;4.40;99.90;;;;;;4938777;29;20410;-63
2024/01/05 03:14:45;;;;;;;1.98;1.88;;;4.40;99.90;;;;;;4936824;29;20182;-63
2024/01/05 03:17:11;;;;;;;2.00;0.97;;;4.30;99.90;;;;;;4938465;29;20265;-62
2024/01/05 03:19:37;;;;;;;0.50;0.47;;;4.30;99.90;;;;;;4938668;29;20170;-63
2024/01/05 03:22:03;;;;;;;0.30;0.30;;;4.20;99.90;;;;;;4938123;29;20781;-63
2024/01/05 03:24:28;;;;;;;0.60;0.60;;;4.30;99.90;;;;;;4938221;29;20664;-63
2024/01/05 03:26:54;;;;;;;0.70;0.70;;;4.40;99.90;;;;;;4938315;29;20446;-63
2024/01/05 03:29:19;;;;;;;0.47;0.47;;;4.40;99.90;;;;;;4938092;29;20278;-63
2024/01/05 03:31:48;;;;;;;1.30;1.27;;;4.30;99.90;;;;;;4937869;29;20205;-63
2024/01/05 03:34:14;;;;;;;0.45;0.45;;;4.20;99.90;;;;;;4937915;29;20180;-63
2024/01/05 03:36:40;;;;;;;0.38;0.38;;;4.30;99.90;;;;;;4937776;29;20194;-63
2024/01/05 03:39:07;;;;;;;1.38;1.27;;;4.40;99.90;;;;;;4937550;29;20181;-63
2024/01/05 03:41:33;;;;;;;2.88;2.67;;;4.40;99.90;;;;;;4937641;29;20182;-63
2024/01/05 03:43:59;;;;;;;0.35;0.35;;;4.30;99.90;;;;;;4937551;29;20688;-63
2024/01/05 03:46:24;;;;;;;0.60;0.60;;;4.30;99.90;;;;;;4937166;29;20210;-63
2024/01/05 03:48:50;;;;;;;3.33;1.20;;;4.30;99.90;;;;;;4937887;29;20653;-62
2024/01/05 03:51:16;;;;;;;0.50;0.50;;;4.30;99.90;;;;;;4937083;29;20281;-63
2024/01/05 03:53:41;;;;;;;0.67;0.60;;;4.30;99.90;;;;;;4937553;29;20182;-63
2024/01/05 03:56:08;;;;;;;0.40;0.40;;;4.50;99.90;;;;;;4936714;29;20209;-63
2024/01/05 03:58:34;;;;;;;0.52;0.52;;;4.40;99.90;;;;;;4937291;29;20301;-63
2024/01/05 04:01:01;;;;;;;0.35;0.35;;;4.50;99.90;;;;;;4937598;29;20174;-63
2024/01/05 04:03:26;;;;;;;0.40;0.40;;;4.40;99.90;;;;;;4937470;29;20331;-63
2024/01/05 04:05:52;;;;;;;0.40;0.40;;;4.50;99.90;;;;;;4937238;29;20223;-63
2024/01/05 04:08:18;;;;;;;0.40;0.40;;;4.50;99.90;;;;;;4937027;29;20209;-63
2024/01/05 04:10:44;;;;;;;0.40;0.40;;;4.40;99.90;;;;;;4936552;29;20692;-62
2024/01/05 04:13:09;;;;;;;16.60;2.40;;;4.30;99.90;;;;;;4937061;29;20170;-63
2024/01/05 04:15:36;;;;;;;0.30;0.30;;;4.30;99.90;;;;;;4936921;29;20604;-63
2024/01/05 04:18:02;;;;;;;1.05;0.55;;;4.40;99.90;;;;;;4938000;29;20198;-63
2024/01/05 04:20:27;;;;;;;0.40;0.40;;;4.60;99.90;;;;;;4937685;29;20868;-63
2024/01/05 04:22:53;;;;;;;0.40;0.40;;;4.60;99.90;;;;;;4937424;29;20193;-63
2024/01/05 04:25:19;;;;;;;0.63;0.60;;;4.70;99.90;;;;;;4937651;29;20243;-62
2024/01/05 04:27:45;;;;;;;0.50;0.50;;;4.70;99.90;;;;;;4937523;29;20281;-63
2024/01/05 04:30:11;;;;;;;0.30;0.30;;;4.80;99.90;;;;;;4937176;29;20580;-63
2024/01/05 04:32:37;;;;;;;0.30;0.30;;;4.80;99.90;;;;;;4937466;29;20206;-63
2024/01/05 04:35:03;;;;;;;0.50;0.50;;;4.80;99.90;;;;;;4937584;29;20668;-62
2024/01/05 04:37:29;;;;;;;0.30;0.30;;;4.90;99.90;;;;;;4937288;29;20565;-63
2024/01/05 04:39:54;;;;;;;0.40;0.40;;;4.90;99.90;;;;;;4936923;29;20189;-63
2024/01/05 04:42:20;;;;;;;0.50;0.50;;;4.90;99.90;;;;;;4937195;29;20622;-63
2024/01/05 04:44:46;;;;;;;0.30;0.30;;;4.90;99.90;;;;;;4937031;29;20201;-63
2024/01/05 04:47:12;;;;;;;0.90;0.90;;;4.90;99.90;;;;;;4936982;29;20249;-63
2024/01/05 04:49:38;;;;;;;0.50;0.50;;;4.90;99.90;;;;;;4936815;29;20552;-63
2024/01/05 04:52:04;;;;;;;0.30;0.30;;;4.80;99.90;;;;;;4936750;29;20450;-63
2024/01/05 04:54:29;;;;;;;0.50;0.50;;;4.70;99.90;;;;;;4937019;29;20176;-63
2024/01/05 04:56:55;;;;;;;0.80;0.80;;;4.60;99.90;;;;;;4937129;29;20238;-63
2024/01/05 04:59:22;;;;;;;0.40;0.40;;;4.60;99.90;;;;;;4937096;29;20585;-63
2024/01/05 05:01:47;;;;;;;0.30;0.30;;;4.70;99.90;;;;;;4936772;29;20167;-63
2024/01/05 05:04:14;;;;;;;0.30;0.30;;;4.80;99.90;;;;;;4937108;29;20342;-63
2024/01/05 05:06:40;;;;;;;0.52;0.52;;;4.80;99.90;;;;;;4955675;28;20209;-63
2024/01/05 05:09:06;;;;;;;0.40;0.40;;;4.80;99.90;;;;;;4960140;29;20193;-63
2024/01/05 05:11:31;;;;;;;4.43;0.70;;;4.70;99.90;;;;;;4959574;29;21006;-63
2024/01/05 05:13:57;;;;;;;0.50;0.50;;;4.70;99.90;;;;;;4959932;29;20185;-63
2024/01/05 05:16:23;;;;;;;0.50;0.50;;;4.60;99.90;;;;;;4959951;28;20441;-63
2024/01/05 05:18:49;;;;;;;0.40;0.40;;;4.60;99.90;;;;;;4959794;29;20640;-63
2024/01/05 05:21:15;;;;;;;0.70;0.70;;;4.70;99.90;;;;;;4959369;29;20234;-63
2024/01/05 05:23:41;;;;;;;0.85;0.82;;;4.80;99.90;;;;;;4959681;29;20532;-63
2024/01/05 05:26:07;;;;;;;0.53;0.50;;;4.80;99.90;;;;;;4959402;28;20225;-62
2024/01/05 05:28:33;;;;;;;0.63;0.63;;;4.80;99.90;;;;;;4959492;29;21006;-63
2024/01/05 05:30:59;;;;;;;1.33;0.83;;;4.80;99.90;;;;;;4959215;29;20244;-63
2024/01/05 05:33:24;;;;;;;0.50;0.50;;;4.70;99.90;;;;;;4959478;29;20182;-63
2024/01/05 05:35:50;;;;;;;0.40;0.40;;;4.70;99.90;;;;;;4960425;28;20846;-63
2024/01/05 05:38:15;;;;;;;0.47;0.40;;;4.70;99.90;;;;;;4959196;29;20213;-63
2024/01/05 05:40:41;;;;;;;0.30;0.30;;;4.80;99.90;;;;;;4959196;29;20181;-63
2024/01/05 05:43:07;;;;;;;0.40;0.40;;;4.80;99.90;;;;;;4959588;29;20197;-63
2024/01/05 05:45:32;;;;;;;0.50;0.50;;;4.80;99.90;;;;;;4959681;29;20421;-63
2024/01/05 05:47:59;;;;;;;17.33;1.73;;;4.90;99.90;;;;;;4958617;28;20272;-62
2024/01/05 05:50:24;;;;;;;0.70;0.70;;;4.90;99.90;;;;;;4959503;29;20301;-63
2024/01/05 05:52:51;;;;;;;0.40;0.40;;;4.80;99.90;;;;;;4959399;29;20681;-62
2024/01/05 05:55:17;;;;;;;0.75;0.75;;;4.80;99.90;;;;;;4959208;29;20222;-63
2024/01/05 05:57:43;;;;;;;1.02;0.50;;;4.80;99.90;;;;;;4947259;28;20221;-63
2024/01/05 06:00:10;;;;;;;0.80;0.80;;;4.80;99.90;;;;;;4922866;29;20259;-63
2024/01/05 06:02:37;;;;;;;0.50;0.50;;;4.90;99.90;;;;;;4920891;29;20175;-63
2024/01/05 06:05:04;;;;;;;0.60;0.60;;;4.80;99.90;;;;;;4921224;29;20176;-63
2024/01/05 06:07:30;;;;;;;3.75;2.10;;;4.80;99.90;;;;;;4921142;29;20187;-63
2024/01/05 06:09:57;;;;;;;0.63;0.63;;;4.80;99.90;;;;;;4920349;29;20215;-62
2024/01/05 06:12:23;;;;;;;0.40;0.40;;;4.70;99.90;;;;;;4921031;29;20171;-63
2024/01/05 06:14:50;;;;;;;0.43;0.43;;;4.70;99.90;;;;;;4920634;29;20257;-63
2024/01/05 06:17:15;;;;;;;0.30;0.30;;;4.70;99.90;;;;;;4920047;29;20285;-63
2024/01/05 06:19:41;;;;;;;0.30;0.30;;;4.80;99.90;;;;;;4920324;29;20756;-63
2024/01/05 06:22:07;;;;;;;1.70;1.67;;;4.70;99.90;;;;;;4920506;29;20258;-63
2024/01/05 06:24:33;;;;;;;0.52;0.52;;;4.60;99.90;;;;;;4944460;29;20682;-63
2024/01/05 06:26:59;;;;;;;0.70;0.70;;;4.70;99.90;;;;;;4958688;28;20284;-63
2024/01/05 06:29:24;;;;;;;0.73;0.73;;;4.60;99.90;;;;;;4959138;29;20406;-62
2024/01/05 06:31:50;;;;;;;1.47;0.70;;;4.60;99.90;;;;;;4959599;29;20201;-62
2024/01/05 06:34:16;;;;;;;0.60;0.60;;;4.60;99.90;;;;;;4960998;29;20222;-62
2024/01/05 06:36:42;;;;;;;0.50;0.50;;;4.60;99.90;;;;;;4960460;28;20196;-62
2024/01/05 06:39:07;;;;;;;4.63;1.48;;;4.60;99.90;;;;;;4960327;29;20185;-62
2024/01/05 06:41:33;;;;;;;2.00;1.37;;;4.60;99.90;;;;;;4924409;29;20191;-62
2024/01/05 06:43:59;;;;;;;0.93;0.70;;;4.60;99.90;;;;;;4922221;29;20183;-62
2024/01/05 06:46:24;;;;;;;2.23;1.90;;;4.60;99.90;;;;;;4922392;29;20200;-61
2024/01/05 06:48:50;;;;;;;1.73;1.23;;;4.70;99.90;;;;;;4921237;29;20281;-61
2024/01/05 06:51:16;;;;;;;0.63;0.63;;;4.80;99.90;;;;;;4958954;29;20209;-62
2024/01/05 06:53:42;;;;;;;1.33;1.33;;;4.90;99.90;;;;;;4958069;29;20704;-62
2024/01/05 06:56:08;;;;;;;0.73;0.60;;;5.00;99.90;;;;;;4957920;28;20213;-62
2024/01/05 06:58:34;;;;;;;0.70;0.70;;;5.00;99.90;;;;;;4960014;29;20836;-62
2024/01/05 07:01:01;;;;;;;0.50;0.50;;;5.10;99.90;;;;;;4959276;29;20178;-62
2024/01/05 07:03:27;;;;;;;3.03;2.92;;;5.10;99.90;;;;;;4959817;29;20170;-62
2024/01/05 07:05:52;;;;;;;0.40;0.40;;;5.10;99.90;;;;;;4958416;28;20186;-62
2024/01/05 07:08:18;;;;;;;5.73;1.53;;;5.20;99.90;;;;;;4959303;29;20923;-62
2024/01/05 07:10:44;;;;;;;0.50;0.50;;;5.10;99.90;;;;;;4958605;29;20390;-63
2024/01/05 07:13:09;;;;;;;0.93;0.93;;;5.10;99.90;;;;;;4959935;29;20193;-62
2024/01/05 07:15:35;;;;;;;0.40;0.40;;;5.10;99.90;;;;;;4959383;29;20413;-63
2024/01/05 07:18:01;;;;;;;0.80;0.80;;;5.10;99.90;;;;;;4958838;29;20264;-62
2024/01/05 07:20:27;;;;;;;0.50;0.50;;;5.10;99.90;;;;;;4958679;29;20417;-62
2024/01/05 07:22:53;;;;;;;0.40;0.40;;;5.20;99.90;;;;;;4958209;29;20414;-63
2024/01/05 07:25:18;;;;;;;2.40;1.23;;;5.20;99.90;;;;;;4958685;29;20180;-62
2024/01/05 07:27:44;;;;;;;0.80;0.80;;;5.20;99.90;;;;;;4958450;28;20205;-62
2024/01/05 07:30:10;;;;;;;0.40;0.40;;;5.30;99.90;;;;;;4957271;28;20202;-63
2024/01/05 07:32:37;;;;;;;2.05;1.95;;;5.30;99.90;;;;;;4957290;29;20659;-63
2024/01/05 07:35:04;;;;;;;0.52;0.52;;;5.30;99.90;;;;;;4958595;29;20188;-62
2024/01/05 07:37:29;;;;;;;0.50;0.50;;;5.20;99.90;;;;;;4958241;28;20189;-62
2024/01/05 07:39:55;;;;;;;0.30;0.30;;;5.20;99.90;;;;;;4958095;29;20185;-62
2024/01/05 07:42:21;;;;;;;0.80;0.80;;;5.20;99.90;;;;;;4958075;29;20174;-62
2024/01/05 07:44:46;;;;;;;1.43;1.33;;;5.30;99.90;;;;;;4958262;29;20177;-62
2024/01/05 07:47:12;;;;;;;0.67;0.67;;;5.30;99.90;;;;;;4958703;28;20194;-62
2024/01/05 07:49:39;;;;;;;0.93;0.83;;;5.40;99.90;;;;;;4958801;29;20199;-62
2024/01/05 07:52:05;;;;;;;0.70;0.70;;;5.40;99.90;;;;;;4958532;29;20186;-62
2024/01/05 07:54:31;;;;;;;1.63;1.52;;;5.40;99.90;;;;;;4958354;29;20264;-62
2024/01/05 07:56:57;;;;;;;2.45;1.20;;;5.50;99.90;;;;;;4955727;28;20641;-63
2024/01/05 07:59:23;;;;;;;1.33;1.33;;;5.50;99.90;;;;;;4956034;29;20232;-62
2024/01/05 08:01:52;;;;;;;1.07;1.07;;;5.60;99.90;;;;;;4957955;29;20910;-63
2024/01/05 08:04:18;;;;;;;3.00;2.83;;;5.60;99.90;;;;;;4957579;29;20473;-62
2024/01/05 08:06:47;;;;;;;0.50;0.50;;;5.60;99.90;;;;;;4956339;28;20198;-61
2024/01/05 08:09:13;;;;;;;1.52;1.42;;;5.60;99.90;;;;;;4956828;29;20185;-62
2024/01/05 08:11:38;;;;;;;0.60;0.60;;;5.70;99.90;;;;;;4957613;29;20216;-62
2024/01/05 08:14:07;;;;;;;1.53;1.53;;;5.70;99.90;;;;;;4958015;29;20545;-63
2024/01/05 08:16:33;;;;;;;0.73;0.73;;;5.70;99.90;;;;;;4959310;28;20697;-62
2024/01/05 08:19:02;;;;;;;0.90;0.90;;;5.80;99.90;;;;;;4959912;29;20207;-62
2024/01/05 08:21:28;;;;;;;1.88;1.88;;;5.90;99.90;;;;;;4958657;29;20173;-62
2024/01/05 08:23:54;;;;;;;2.17;1.98;;;6.00;99.90;;;;;;4958953;29;20260;-62
2024/01/05 08:26:19;;;;;;;0.50;0.50;;;6.00;99.90;;;;;;4958190;28;20230;-62
2024/01/05 08:28:46;;;;;;;3.37;3.17;;;6.10;99.90;;;;;;4958179;29;20179;-63
2024/01/05 08:31:15;;;;;;;1.33;1.02;;;6.10;99.90;;;;;;4957638;29;20588;-62
2024/01/05 08:33:40;;;;;;;3.30;2.90;;;6.10;99.90;;;;;;4957032;29;20181;-62
2024/01/05 08:36:07;;;;;;;3.53;1.80;;;6.10;99.90;;;;;;4945378;29;20535;-62
2024/01/05 08:38:33;;;;;;;0.75;0.75;;;6.10;99.90;;;;;;4917715;29;20178;-63
2024/01/05 08:40:59;;;;;;;2.93;2.83;;;6.20;99.90;;;;;;4918424;29;20174;-63
2024/01/05 08:43:24;;;;;;;1.30;1.30;;;6.30;99.90;;;;;;4919093;29;20481;-63
2024/01/05 08:45:50;;;;;;;2.87;1.63;;;6.30;99.90;;;;;;4917897;29;20245;-63
2024/01/05 08:48:16;;;;;;;1.40;1.20;;;6.30;99.90;;;;;;4917568;29;20184;-63
2024/01/05 08:50:41;;;;;;;2.63;2.00;;;6.30;99.90;;;;;;4916945;29;20201;-63
2024/01/05 08:53:09;;;;;;;0.60;0.60;;;6.30;99.90;;;;;;4917892;29;20261;-63
2024/01/05 08:55:35;;;;;;;1.25;1.08;;;6.40;99.90;;;;;;4917657;29;20190;-63
2024/01/05 08:58:02;;;;;;;0.70;0.70;;;6.50;99.90;;;;;;4918139;29;20191;-63
2024/01/05 09:00:28;;;;;;;1.70;1.60;;;6.60;99.90;;;;;;4917406;29;20182;-64
2024/01/05 09:02:55;;;;;;;1.27;1.23;;;6.60;99.90;;;;;;4917848;29;20237;-63
2024/01/05 09:05:21;;;;;;;2.95;1.30;;;6.60;99.90;;;;;;4917837;29;20418;-63
2024/01/05 09:07:47;;;;;;;2.30;1.07;;;6.60;99.90;;;;;;4917576;29;20198;-64
2024/01/05 09:10:13;;;;;;;1.95;1.85;;;6.60;99.90;;;;;;4917482;29;20642;-63
2024/01/05 09:12:39;;;;;;;1.97;1.77;;;6.60;99.90;;;;;;4917685;29;20181;-63
2024/01/05 09:15:05;;;;;;;1.77;1.67;;;6.60;99.90;;;;;;4917555;29;20186;-63
2024/01/05 09:17:31;;;;;;;3.10;2.90;;;6.70;99.90;;;;;;4917978;29;20711;-63
2024/01/05 09:19:57;;;;;;;1.83;1.70;;;6.70;99.90;;;;;;4917838;29;20185;-63
2024/01/05 09:22:22;;;;;;;1.20;1.10;;;6.70;99.90;;;;;;4917158;29;20422;-63
2024/01/05 09:24:48;;;;;;;1.93;1.83;;;6.80;99.90;;;;;;4917606;29;20175;-63
2024/01/05 09:27:14;;;;;;;2.13;1.43;;;6.70;99.90;;;;;;4900726;29;20780;-63
2024/01/05 09:29:40;;;;;;;2.17;2.08;;;6.80;99.90;;;;;;4917675;29;20274;-63
2024/01/05 09:32:06;;;;;;;1.90;1.60;;;6.80;99.90;;;;;;4917360;29;20297;-63
2024/01/05 09:34:32;;;;;;;2.03;1.70;;;6.80;99.90;;;;;;4917352;29;20198;-63
2024/01/05 09:36:57;;;;;;;1.00;1.00;;;6.70;99.90;;;;;;4916286;29;20482;-63
2024/01/05 09:39:23;;;;;;;1.37;1.37;;;6.80;99.90;;;;;;4916074;29;20257;-63
2024/01/05 09:41:49;;;;;;;2.70;2.60;;;6.90;99.90;;;;;;4917332;29;20205;-63
2024/01/05 09:44:16;;;;;;;6.15;1.10;;;6.90;99.90;;;;;;4917700;29;20188;-63
2024/01/05 09:46:43;;;;;;;1.40;1.30;;;6.90;99.90;;;;;;4917678;29;20585;-63
2024/01/05 09:49:09;;;;;;;1.52;1.42;;;6.90;99.90;;;;;;4917252;29;20179;-63
2024/01/05 09:51:36;;;;;;;5.22;3.42;;;6.90;99.90;;;;;;4917593;29;20211;-63
2024/01/05 09:54:02;;;;;;;3.20;2.00;;;7.00;99.90;;;;;;4920328;29;20613;-63
2024/01/05 09:56:28;;;;;;;7.10;3.23;;;7.00;99.90;;;;;;4920776;29;20217;-63
2024/01/05 09:58:55;;;;;;;4.65;2.90;;;7.00;99.90;;;;;;4920951;29;20912;-63
2024/01/05 10:01:25;;;;;;;6.05;3.72;;;7.10;99.90;;;;;;4920713;29;20591;-63
2024/01/05 10:03:58;;;;;;;3.55;1.63;;;7.00;99.90;;;;;;4920526;29;20237;-63
2024/01/05 10:06:25;;;;;;;1.48;1.33;;;6.90;99.90;;;;;;4920714;29;20194;-64
2024/01/05 10:08:53;;;;;;;1.25;1.25;;;6.90;99.90;;;;;;4920495;29;20191;-63
2024/01/05 10:11:29;;;;;;;1.58;1.48;;;7.00;99.90;;;;;;4920200;29;20218;-63
2024/01/05 10:14:00;;;;;;;0.95;0.95;;;6.90;99.90;;;;;;4920722;29;20179;-63
2024/01/05 10:16:34;;;;;;;0.73;0.73;;;7.00;99.90;;;;;;4921012;29;20586;-63
2024/01/05 10:19:28;;;;;;;5.03;2.72;;;7.10;99.90;;;;;;4920139;29;20190;-63
2024/01/05 10:21:54;;;;;;;2.15;2.05;;;7.20;99.90;;;;;;4907981;29;20194;-63
2024/01/05 10:24:25;;;;;;;2.23;1.63;;;7.20;99.90;;;;;;4920748;29;20265;-63
2024/01/05 10:27:04;;;;;;;1.33;1.23;;;7.30;99.90;;;;;;4920090;29;20549;-63
2024/01/05 10:29:37;;;;;;;1.67;1.58;;;7.40;99.90;;;;;;4920327;29;20554;-63
2024/01/05 10:32:16;;;;;;;0.95;0.85;;;7.50;99.90;;;;;;4920017;29;20206;-63
2024/01/05 10:34:42;;;;;;;2.58;2.38;;;7.50;99.90;;;;;;4920158;29;20600;-63
2024/01/05 10:37:09;;;;;;;1.38;1.27;;;7.60;99.90;;;;;;4920344;29;20203;-63
2024/01/05 10:39:35;;;;;;;1.60;1.05;;;7.60;99.90;;;;;;4920092;29;20658;-64
2024/01/05 10:42:26;;;;;;;1.27;1.27;;;7.60;99.90;;;;;;4919812;29;20184;-63
2024/01/05 10:44:54;;;;;;;3.00;2.80;;;7.70;99.90;;;;;;4920658;29;20984;-63
2024/01/05 10:47:22;;;;;;;2.00;1.90;;;7.80;99.90;;;;;;4920174;29;20206;-63
2024/01/05 10:49:50;;;;;;;3.08;0.90;;;7.80;99.90;;;;;;4919979;29;20190;-64
2024/01/05 10:52:20;;;;;;;1.77;1.38;;;7.90;99.90;;;;;;4919854;29;20223;-63
2024/01/05 10:54:47;;;;;;;2.55;2.35;;;8.00;99.90;;;;;;4919858;29;20646;-63
2024/01/05 10:57:14;;;;;;;1.63;1.42;;;8.00;99.90;;;;;;4919998;29;20253;-63
2024/01/05 10:59:48;;;;;;;3.80;1.58;;;8.10;99.90;;;;;;4920322;29;20198;-63
2024/01/05 11:02:35;;;;;;;1.70;1.33;;;8.20;99.90;;;;;;4919296;29;20666;-63
2024/01/05 11:05:13;;;;;;;2.55;2.35;;;8.30;99.90;;;;;;4919542;29;20654;-63
2024/01/05 11:07:40;;;;;;;3.97;2.30;;;8.30;99.90;;;;;;4919633;29;20194;-63
2024/01/05 11:10:26;;;;;;;3.42;3.22;;;8.30;99.90;;;;;;4902896;29;20748;-63
2024/01/05 11:13:07;;;;;;;5.03;2.08;;;8.30;99.90;;;;;;4919409;29;20182;-63
2024/01/05 11:16:06;;;;;;;7.30;3.42;;;8.30;99.90;;;;;;4919734;29;20186;-63
2024/01/05 11:19:03;;;;;;;8.25;3.28;;;8.30;99.90;;;;;;4919278;29;20214;-63
2024/01/05 11:21:48;;;;;;;1.92;1.73;;;8.40;99.90;;;;;;4919085;29;20176;-63
2024/01/05 11:24:15;;;;;;;3.00;2.80;;;8.50;99.90;;;;;;4919113;29;20265;-63
2024/01/05 11:26:42;;;;;;;2.55;2.42;;;8.40;99.90;;;;;;4919280;29;20254;-64
2024/01/05 11:29:34;;;;;;;3.83;2.92;;;8.50;99.90;;;;;;4919263;29;20197;-63
2024/01/05 11:31:59;;;;;;;2.75;2.15;;;8.60;99.90;;;;;;4918468;29;20222;-63
2024/01/05 11:34:36;;;;;;;0.97;0.87;;;8.60;99.90;;;;;;4919456;29;20185;-63
2024/01/05 11:37:03;;;;;;;4.10;1.30;;;8.50;99.90;;;;;;4919282;29;20681;-63
2024/01/05 11:39:49;;;;;;;1.60;0.98;;;8.40;99.90;;;;;;4919593;29;20214;-63
2024/01/05 11:42:24;;;;;;;1.20;1.20;;;8.40;99.90;;;;;;4918424;29;20558;-63
2024/01/05 11:44:51;;;;;;;0.73;0.73;;;8.40;99.90;;;;;;4919276;29;20185;-63
2024/01/05 11:47:47;;;;;;;0.88;0.88;;;8.40;99.90;;;;;;4918284;29;20209;-63
2024/01/05 11:50:38;;;;;;;1.00;0.82;;;8.40;99.90;;;;;;4918778;29;20203;-63
2024/01/05 11:53:13;;;;;;;1.30;0.98;;;8.40;99.90;;;;;;4919272;29;20547;-63
2024/01/05 11:55:46;;;;;;;0.70;0.70;;;8.30;99.90;;;;;;4918496;29;20174;-63
2024/01/05 11:58:17;;;;;;;0.60;0.60;;;8.30;99.90;;;;;;4918524;29;20198;-63
2024/01/05 12:00:46;;;;;;;0.88;0.82;;;8.30;99.90;;;;;;4917862;29;20214;-63
2024/01/05 12:03:12;;;;;;;2.58;0.98;;;8.30;99.90;;;;;;4918570;29;20192;-63
2024/01/05 12:05:38;;;;;;;2.00;1.77;;;8.40;99.90;;;;;;4918737;29;20265;-63
2024/01/05 12:08:05;;;;;;;0.60;0.60;;;8.50;99.90;;;;;;4918911;29;20206;-63
2024/01/05 12:10:31;;;;;;;0.40;0.40;;;8.60;99.90;;;;;;4918014;29;20461;-63
2024/01/05 12:12:57;;;;;;;1.25;1.15;;;8.50;99.90;;;;;;4917915;29;20250;-63
2024/01/05 12:15:24;;;;;;;0.80;0.80;;;8.50;99.90;;;;;;4917868;29;20630;-63
2024/01/05 12:17:51;;;;;;;1.67;1.58;;;8.60;99.90;;;;;;4918246;29;20210;-63
2024/01/05 12:20:17;;;;;;;1.98;0.88;;;8.60;99.90;;;;;;4918457;29;20182;-63
2024/01/05 12:22:43;;;;;;;0.40;0.40;;;8.60;99.90;;;;;;4918378;29;20190;-63
2024/01/05 12:25:10;;;;;;;2.23;2.03;;;8.60;99.90;;;;;;4918166;29;20175;-63
2024/01/05 12:27:39;;;;;;;0.55;0.50;;;8.50;99.90;;;;;;4918663;29;20203;-63
2024/01/05 12:30:06;;;;;;;2.47;1.73;;;8.50;99.90;;;;;;4918466;29;20186;-63
2024/01/05 12:32:35;;;;;;;2.15;0.98;;;8.30;99.90;;;;;;4918274;29;20183;-63
2024/01/05 12:35:02;;;;;;;1.98;1.88;;;8.20;99.90;;;;;;4918450;29;20175;-63
2024/01/05 12:37:28;;;;;;;1.20;1.10;;;8.20;99.90;;;;;;4918472;29;20199;-63
2024/01/05 12:39:54;;;;;;;4.13;2.35;;;8.10;99.90;;;;;;4918385;29;20182;-63
2024/01/05 12:42:20;;;;;;;1.03;1.00;;;8.00;99.90;;;;;;4918445;29;20167;-63
2024/01/05 12:44:46;;;;;;;6.73;2.53;;;8.10;99.90;;;;;;4918224;29;20415;-63
2024/01/05 12:47:11;;;;;;;1.00;1.00;;;8.20;99.90;;;;;;4918275;29;20193;-63
2024/01/05 12:49:38;;;;;;;0.60;0.60;;;8.20;99.90;;;;;;4918273;29;20418;-63
2024/01/05 12:52:08;;;;;;;5.05;3.70;;;8.10;99.90;;;;;;4901260;29;20206;-63
2024/01/05 12:54:41;;;;;;;1.35;1.20;;;8.10;99.90;;;;;;4918325;29;20681;-63
2024/01/05 12:57:08;;;;;;;1.95;1.88;;;8.00;99.90;;;;;;4917848;29;20218;-63
2024/01/05 12:59:35;;;;;;;2.20;2.10;;;8.00;99.90;;;;;;4917920;29;20187;-63